Time;durP1;ratioP1;P1;durP2;ratioP2;P2;SDS_P1;SDS_P2;PMS_P1;PMS_P2;Temp;Humidity;BMP_temperature;BMP_pressure;BME280_temperature;BME280_humidity;BME280_pressure;Samples;Min_cycle;Max_cycle;Signal;HPM_P1;HPM_P2
2020/12/26 00:01:39;;;;;;;9.47;5.73;;;2.80;99.90;;;;;;5076979;28;20205;-76
2020/12/26 00:04:06;;;;;;;7.90;5.63;;;2.80;99.90;;;;;;5077575;28;20302;-77
2020/12/26 00:06:33;;;;;;;6.87;5.13;;;2.80;99.90;;;;;;5084276;28;20233;-76
2020/12/26 00:08:59;;;;;;;11.03;6.17;;;2.80;99.90;;;;;;5080181;28;20244;-76
2020/12/26 00:11:26;;;;;;;10.13;6.23;;;2.80;99.90;;;;;;5078140;28;20678;-77
2020/12/26 00:13:52;;;;;;;9.57;5.63;;;2.80;99.90;;;;;;5080911;28;21302;-77
2020/12/26 00:16:19;;;;;;;9.07;5.87;;;2.80;99.90;;;;;;5082720;28;20661;-77
2020/12/26 00:18:47;;;;;;;8.30;5.60;;;2.80;99.90;;;;;;5088754;28;20264;-76
2020/12/26 00:21:17;;;;;;;6.10;4.97;;;2.70;99.90;;;;;;5082384;28;20201;-77
2020/12/26 00:23:44;;;;;;;8.50;5.83;;;2.70;99.90;;;;;;5089204;28;20216;-77
2020/12/26 00:26:14;;;;;;;9.00;5.53;;;2.80;99.90;;;;;;5084632;28;20299;-76
2020/12/26 00:28:42;;;;;;;7.93;5.37;;;2.80;99.90;;;;;;5077662;28;20205;-75
2020/12/26 00:31:12;;;;;;;9.40;5.93;;;2.80;99.90;;;;;;5080917;28;20320;-75
2020/12/26 00:33:39;;;;;;;7.07;4.90;;;2.70;99.90;;;;;;5082254;28;20197;-76
2020/12/26 00:36:07;;;;;;;6.90;4.73;;;2.70;99.90;;;;;;5091724;28;20267;-75
2020/12/26 00:38:33;;;;;;;8.27;5.60;;;2.70;99.90;;;;;;5082592;28;20205;-75
2020/12/26 00:41:00;;;;;;;7.57;5.57;;;2.70;99.90;;;;;;5081585;28;20209;-75
2020/12/26 00:43:26;;;;;;;8.87;4.87;;;2.80;99.90;;;;;;5085905;28;20216;-74
2020/12/26 00:45:53;;;;;;;8.43;5.10;;;2.70;99.90;;;;;;5078788;28;20296;-75
2020/12/26 00:48:19;;;;;;;8.60;5.63;;;2.70;99.90;;;;;;5074261;28;20216;-76
2020/12/26 00:50:45;;;;;;;10.87;5.73;;;2.70;99.90;;;;;;5075529;28;20229;-75
2020/12/26 00:53:13;;;;;;;8.50;5.47;;;2.70;99.90;;;;;;5074694;28;20282;-75
2020/12/26 00:55:39;;;;;;;8.87;5.23;;;2.70;99.90;;;;;;5083536;28;20209;-75
2020/12/26 00:58:06;;;;;;;8.33;6.10;;;2.70;99.90;;;;;;5076819;28;20205;-74
2020/12/26 01:00:32;;;;;;;9.07;5.57;;;2.70;99.90;;;;;;5082076;28;20248;-74
2020/12/26 01:02:58;;;;;;;9.50;5.57;;;2.70;99.90;;;;;;5076712;28;20291;-74
2020/12/26 01:05:25;;;;;;;9.30;5.17;;;2.70;99.90;;;;;;5079311;28;20280;-75
2020/12/26 01:07:51;;;;;;;7.03;4.17;;;2.70;99.90;;;;;;5090829;28;20426;-75
2020/12/26 01:10:19;;;;;;;7.17;4.27;;;2.60;99.90;;;;;;5084945;28;20295;-76
2020/12/26 01:12:45;;;;;;;5.90;4.37;;;2.60;99.90;;;;;;5081887;28;20307;-75
2020/12/26 01:15:12;;;;;;;6.23;3.73;;;2.60;99.90;;;;;;5089536;28;20213;-76
2020/12/26 01:17:38;;;;;;;3.60;2.77;;;2.60;99.90;;;;;;5094642;28;20205;-74
2020/12/26 01:20:05;;;;;;;4.13;2.87;;;2.60;99.90;;;;;;5081925;28;20291;-73
2020/12/26 01:22:34;;;;;;;2.83;2.53;;;2.40;99.90;;;;;;5078032;28;20571;-75
2020/12/26 01:25:02;;;;;;;2.40;2.20;;;2.40;99.90;;;;;;5086005;28;20197;-72
2020/12/26 01:27:29;;;;;;;2.90;2.37;;;2.40;99.90;;;;;;5080368;28;20215;-73
2020/12/26 01:29:56;;;;;;;3.83;2.37;;;2.30;99.90;;;;;;5081349;28;20288;-73
2020/12/26 01:32:27;;;;;;;2.83;1.90;;;2.30;99.90;;;;;;5080730;28;20237;-75
2020/12/26 01:34:53;;;;;;;4.57;2.30;;;2.30;99.90;;;;;;5079547;28;20201;-75
2020/12/26 01:37:20;;;;;;;2.57;1.63;;;2.20;99.90;;;;;;5081675;28;20211;-75
2020/12/26 01:39:46;;;;;;;3.53;2.00;;;2.10;99.90;;;;;;5077007;28;20224;-76
2020/12/26 01:42:13;;;;;;;2.83;1.80;;;2.10;99.90;;;;;;5083248;28;20320;-75
2020/12/26 01:44:40;;;;;;;2.93;1.30;;;2.00;99.90;;;;;;5093601;28;20582;-75
2020/12/26 01:47:07;;;;;;;2.90;1.77;;;1.90;99.90;;;;;;5080437;28;20258;-76
2020/12/26 01:49:34;;;;;;;4.27;1.73;;;1.90;99.90;;;;;;5086345;28;20688;-76
2020/12/26 01:52:01;;;;;;;1.67;1.50;;;1.80;99.90;;;;;;5078003;28;20257;-75
2020/12/26 01:54:29;;;;;;;3.20;1.70;;;1.80;99.90;;;;;;5081394;28;20197;-75
2020/12/26 01:56:56;;;;;;;1.40;1.30;;;1.80;99.90;;;;;;5081700;28;20212;-75
2020/12/26 01:59:23;;;;;;;1.53;1.40;;;1.70;99.90;;;;;;5081956;28;20200;-75
2020/12/26 02:01:51;;;;;;;1.97;1.30;;;1.70;99.90;;;;;;5082579;28;20265;-75
2020/12/26 02:04:18;;;;;;;1.70;1.30;;;1.70;99.90;;;;;;5085340;28;20209;-76
2020/12/26 02:06:47;;;;;;;1.33;1.00;;;1.60;99.90;;;;;;5086630;28;20670;-74
2020/12/26 02:09:15;;;;;;;1.63;1.30;;;1.60;99.90;;;;;;5082879;28;20209;-74
2020/12/26 02:11:41;;;;;;;1.53;1.43;;;1.60;99.90;;;;;;5079211;28;20236;-73
2020/12/26 02:14:08;;;;;;;2.03;1.67;;;1.60;99.90;;;;;;5081036;28;20236;-73
2020/12/26 02:16:43;;;;;;;2.50;1.83;;;1.60;99.90;;;;;;5078852;28;20215;-72
2020/12/26 02:19:11;;;;;;;2.00;1.90;;;1.50;99.90;;;;;;5085057;28;20287;-72
2020/12/26 02:21:38;;;;;;;2.57;2.07;;;1.60;99.90;;;;;;5079574;28;20284;-73
2020/12/26 02:24:05;;;;;;;2.93;2.20;;;1.60;99.90;;;;;;5081707;28;20215;-74
2020/12/26 02:26:31;;;;;;;2.23;2.03;;;1.60;99.90;;;;;;5082233;28;20285;-75
2020/12/26 02:28:58;;;;;;;2.97;2.47;;;1.50;99.90;;;;;;5079942;28;20200;-76
2020/12/26 02:31:24;;;;;;;2.93;2.63;;;1.50;99.90;;;;;;5078432;28;20228;-76
2020/12/26 02:33:51;;;;;;;3.07;2.57;;;1.50;99.90;;;;;;5080701;28;20251;-75
2020/12/26 02:36:18;;;;;;;2.60;2.40;;;1.50;99.90;;;;;;5077456;28;20723;-75
2020/12/26 02:38:44;;;;;;;2.90;2.60;;;1.40;99.90;;;;;;5080947;28;20291;-75
2020/12/26 02:41:12;;;;;;;4.70;2.57;;;1.50;99.90;;;;;;5076940;28;20301;-74
2020/12/26 02:43:39;;;;;;;3.00;2.63;;;1.40;99.90;;;;;;5083073;28;20209;-75
2020/12/26 02:46:05;;;;;;;3.30;2.47;;;1.40;99.90;;;;;;5086223;28;20283;-74
2020/12/26 02:48:32;;;;;;;3.17;2.60;;;1.40;99.90;;;;;;5078703;28;20234;-74
2020/12/26 02:50:58;;;;;;;3.60;2.73;;;1.40;99.90;;;;;;5080185;28;20674;-75
2020/12/26 02:53:25;;;;;;;4.33;2.53;;;1.40;99.90;;;;;;5077069;28;20292;-74
2020/12/26 02:55:52;;;;;;;3.77;2.53;;;1.40;99.90;;;;;;5086111;28;20201;-76
2020/12/26 02:58:20;;;;;;;2.63;2.30;;;1.40;99.90;;;;;;5090462;28;20207;-74
2020/12/26 03:00:48;;;;;;;3.50;2.40;;;1.40;99.90;;;;;;5079771;28;20650;-74
2020/12/26 03:03:15;;;;;;;4.00;2.87;;;1.40;99.90;;;;;;5079006;28;20205;-77
2020/12/26 03:05:41;;;;;;;3.03;2.60;;;1.40;99.90;;;;;;5083283;28;20232;-77
2020/12/26 03:08:08;;;;;;;4.30;2.97;;;1.40;99.90;;;;;;5087822;28;20212;-77
2020/12/26 03:10:35;;;;;;;3.60;3.10;;;1.40;99.90;;;;;;5083954;28;20228;-78
2020/12/26 03:13:02;;;;;;;3.03;2.57;;;1.40;99.90;;;;;;5084508;28;20241;-77
2020/12/26 03:15:29;;;;;;;3.27;2.67;;;1.40;99.90;;;;;;5086796;28;20282;-77
2020/12/26 03:17:55;;;;;;;6.73;3.00;;;1.50;99.90;;;;;;5083237;28;20232;-78
2020/12/26 03:20:22;;;;;;;3.47;2.87;;;1.40;99.90;;;;;;5081540;28;20263;-74
2020/12/26 03:22:48;;;;;;;4.47;3.03;;;1.50;99.90;;;;;;5081594;28;20618;-76
2020/12/26 03:25:14;;;;;;;3.13;2.90;;;1.40;99.90;;;;;;5090040;28;20232;-75
2020/12/26 03:27:41;;;;;;;4.10;2.83;;;1.40;99.90;;;;;;5082813;28;20197;-77
2020/12/26 03:30:07;;;;;;;4.43;3.10;;;1.50;99.90;;;;;;5085353;28;20268;-77
2020/12/26 03:32:35;;;;;;;5.20;3.63;;;1.40;99.90;;;;;;5082831;28;20323;-77
2020/12/26 03:35:02;;;;;;;3.97;3.00;;;1.50;99.90;;;;;;5086650;28;20278;-76
2020/12/26 03:37:29;;;;;;;4.00;3.10;;;1.40;99.90;;;;;;5080590;28;20807;-77
2020/12/26 03:39:56;;;;;;;4.77;3.30;;;1.30;99.90;;;;;;5080014;28;20197;-77
2020/12/26 03:42:22;;;;;;;5.13;3.53;;;1.40;99.90;;;;;;5088419;28;20222;-79
2020/12/26 03:44:49;;;;;;;4.83;3.53;;;1.40;99.90;;;;;;5089705;28;20205;-79
2020/12/26 03:47:15;;;;;;;5.13;3.70;;;1.40;99.90;;;;;;5085137;28;20254;-77
2020/12/26 03:49:43;;;;;;;5.50;3.30;;;1.40;99.90;;;;;;5080831;28;20655;-77
2020/12/26 03:52:09;;;;;;;5.47;3.67;;;1.50;99.90;;;;;;5076674;28;20304;-77
2020/12/26 03:54:36;;;;;;;5.13;3.70;;;1.50;99.90;;;;;;5089142;28;20225;-76
2020/12/26 03:57:02;;;;;;;4.90;3.33;;;1.50;99.90;;;;;;5087668;28;20630;-76
2020/12/26 03:59:28;;;;;;;4.10;2.97;;;1.50;99.90;;;;;;5083492;28;20291;-74
2020/12/26 04:01:55;;;;;;;3.67;3.13;;;1.50;99.90;;;;;;5081289;28;20208;-75
2020/12/26 04:04:21;;;;;;;6.67;3.90;;;1.40;99.90;;;;;;5077941;28;20212;-76
2020/12/26 04:06:48;;;;;;;5.33;3.40;;;1.40;99.90;;;;;;5081782;28;20236;-76
2020/12/26 04:09:15;;;;;;;4.57;3.40;;;1.40;99.90;;;;;;5080605;28;20220;-76
2020/12/26 04:11:42;;;;;;;6.83;3.63;;;1.40;99.90;;;;;;5083320;28;20224;-76
2020/12/26 04:14:09;;;;;;;4.67;3.33;;;1.50;99.90;;;;;;5079117;28;20211;-76
2020/12/26 04:16:36;;;;;;;4.73;3.40;;;1.70;99.90;;;;;;5085691;28;20205;-75
2020/12/26 04:19:02;;;;;;;3.40;2.50;;;1.50;99.90;;;;;;5079103;28;20274;-76
2020/12/26 04:21:29;;;;;;;4.73;3.13;;;1.40;99.90;;;;;;5081067;28;20606;-76
2020/12/26 04:23:56;;;;;;;5.07;3.60;;;1.40;99.90;;;;;;5079288;28;20236;-76
2020/12/26 04:26:23;;;;;;;4.40;3.20;;;1.40;99.90;;;;;;5082307;28;20225;-76
2020/12/26 04:28:50;;;;;;;5.33;3.40;;;1.40;99.90;;;;;;5083974;28;20239;-76
2020/12/26 04:31:17;;;;;;;3.37;2.87;;;1.30;99.90;;;;;;5079761;28;20248;-76
2020/12/26 04:33:44;;;;;;;4.43;3.10;;;1.50;99.90;;;;;;5081503;28;20296;-76
2020/12/26 04:36:11;;;;;;;4.67;3.57;;;1.30;99.90;;;;;;5083114;28;20206;-76
2020/12/26 04:38:37;;;;;;;4.50;3.30;;;1.40;99.90;;;;;;5080939;28;20216;-76
2020/12/26 04:41:05;;;;;;;5.93;3.40;;;1.30;99.90;;;;;;5083767;28;20295;-76
2020/12/26 04:43:32;;;;;;;4.00;3.07;;;1.30;99.90;;;;;;5087598;28;20234;-75
2020/12/26 04:45:59;;;;;;;4.30;3.30;;;1.40;99.90;;;;;;5083726;28;20265;-75
2020/12/26 04:48:30;;;;;;;3.90;3.47;;;1.40;99.90;;;;;;5090124;28;20235;-75
2020/12/26 04:51:01;;;;;;;5.60;3.50;;;1.30;99.90;;;;;;5083685;28;20254;-75
2020/12/26 04:53:32;;;;;;;4.27;3.53;;;1.30;99.90;;;;;;5081813;28;20189;-76
2020/12/26 04:56:02;;;;;;;4.67;3.30;;;1.40;99.90;;;;;;5084103;28;20212;-76
2020/12/26 04:58:30;;;;;;;4.67;3.17;;;1.40;99.90;;;;;;5079807;28;20310;-76
2020/12/26 05:00:58;;;;;;;4.20;3.70;;;1.40;99.90;;;;;;5092874;28;20300;-75
2020/12/26 05:03:27;;;;;;;4.60;3.53;;;1.50;99.90;;;;;;5079330;28;20236;-76
2020/12/26 05:06:03;;;;;;;5.50;3.53;;;1.50;99.90;;;;;;5090525;28;20230;-76
2020/12/26 05:08:30;;;;;;;5.03;3.67;;;1.60;99.90;;;;;;5087851;28;20197;-77
2020/12/26 05:10:57;;;;;;;3.80;3.03;;;1.60;99.90;;;;;;5082391;28;20228;-76
2020/12/26 05:13:24;;;;;;;5.37;3.73;;;1.60;99.90;;;;;;5084717;28;20317;-77
2020/12/26 05:15:53;;;;;;;4.47;3.27;;;1.60;99.90;;;;;;5083945;28;20215;-76
2020/12/26 05:18:19;;;;;;;4.00;3.50;;;1.70;99.90;;;;;;5085019;28;20292;-75
2020/12/26 05:20:46;;;;;;;7.80;4.23;;;1.70;99.90;;;;;;5081445;28;20201;-75
2020/12/26 05:23:14;;;;;;;5.20;3.93;;;1.70;99.90;;;;;;5085489;28;20248;-75
2020/12/26 05:25:42;;;;;;;6.60;3.87;;;1.70;99.90;;;;;;5081498;28;20640;-74
2020/12/26 05:28:14;;;;;;;5.80;4.23;;;1.70;99.90;;;;;;5082542;28;20205;-74
2020/12/26 05:30:42;;;;;;;5.93;3.80;;;1.90;99.90;;;;;;5086604;28;20212;-75
2020/12/26 05:33:10;;;;;;;5.37;3.67;;;1.70;99.90;;;;;;5090443;28;20248;-75
2020/12/26 05:35:39;;;;;;;4.77;3.50;;;1.80;99.90;;;;;;5085449;28;20637;-76
2020/12/26 05:38:17;;;;;;;5.17;3.80;;;1.80;99.90;;;;;;5088098;28;20208;-75
2020/12/26 05:40:50;;;;;;;5.87;4.23;;;1.80;99.90;;;;;;5082169;28;20223;-76
2020/12/26 05:43:18;;;;;;;5.00;3.80;;;1.80;99.90;;;;;;5079373;28;20217;-76
2020/12/26 05:45:45;;;;;;;4.63;3.53;;;1.80;99.90;;;;;;5082362;28;20236;-77
2020/12/26 05:48:13;;;;;;;4.93;3.50;;;1.90;99.90;;;;;;5078207;28;20312;-76
2020/12/26 05:50:41;;;;;;;5.70;3.77;;;1.90;99.90;;;;;;5077890;28;20292;-75
2020/12/26 05:53:09;;;;;;;5.33;4.10;;;1.90;99.90;;;;;;5081246;28;20630;-74
2020/12/26 05:55:40;;;;;;;4.63;3.93;;;1.90;99.90;;;;;;5080889;28;20209;-75
2020/12/26 05:58:07;;;;;;;6.80;4.27;;;1.90;99.90;;;;;;5080985;28;20583;-76
2020/12/26 06:00:36;;;;;;;6.20;3.97;;;1.90;99.90;;;;;;5083914;28;20346;-76
2020/12/26 06:03:26;;;;;;;8.47;4.30;;;1.90;99.90;;;;;;5080425;28;20212;-75
2020/12/26 06:05:55;;;;;;;6.97;3.83;;;2.00;99.90;;;;;;5085583;28;20245;-76
2020/12/26 06:08:23;;;;;;;7.77;4.27;;;2.00;99.90;;;;;;5085126;28;20575;-76
2020/12/26 06:10:53;;;;;;;7.83;4.40;;;1.90;99.90;;;;;;5082491;28;20277;-77
2020/12/26 06:13:23;;;;;;;7.17;4.03;;;1.90;99.90;;;;;;5082305;28;20229;-76
2020/12/26 06:15:52;;;;;;;5.93;4.07;;;1.90;99.90;;;;;;5080319;28;20658;-71
2020/12/26 06:18:20;;;;;;;5.53;4.53;;;1.90;99.90;;;;;;5081570;28;20216;-76
2020/12/26 06:20:49;;;;;;;7.10;4.20;;;1.90;99.90;;;;;;5081613;28;20212;-72
2020/12/26 06:23:20;;;;;;;6.83;4.27;;;1.90;99.90;;;;;;5080922;28;20688;-71
2020/12/26 06:25:49;;;;;;;5.93;4.10;;;2.00;99.90;;;;;;5081716;28;20664;-72
2020/12/26 06:28:25;;;;;;;5.87;4.50;;;2.00;99.90;;;;;;5083391;28;20243;-71
2020/12/26 06:30:53;;;;;;;8.73;4.60;;;2.00;99.90;;;;;;5077748;28;20223;-71
2020/12/26 06:33:24;;;;;;;7.87;4.37;;;2.00;99.90;;;;;;5079400;28;20227;-71
2020/12/26 06:35:51;;;;;;;8.00;4.53;;;2.00;99.90;;;;;;5078479;28;20213;-71
2020/12/26 06:38:20;;;;;;;6.53;4.50;;;2.00;99.90;;;;;;5075532;28;20300;-71
2020/12/26 06:40:57;;;;;;;6.23;4.00;;;2.00;99.90;;;;;;5079114;28;20205;-70
2020/12/26 06:43:43;;;;;;;4.70;3.80;;;2.00;99.90;;;;;;5082129;28;20253;-72
2020/12/26 06:46:30;;;;;;;6.77;4.70;;;2.10;99.90;;;;;;5076463;28;20280;-70
2020/12/26 06:48:58;;;;;;;6.37;4.73;;;2.10;99.90;;;;;;5084549;28;20235;-71
2020/12/26 06:51:26;;;;;;;7.97;4.57;;;2.10;99.90;;;;;;5078277;28;20200;-72
2020/12/26 06:53:54;;;;;;;5.73;4.57;;;2.10;99.90;;;;;;5082828;28;20610;-72
2020/12/26 06:56:47;;;;;;;6.17;4.97;;;2.10;99.90;;;;;;5077001;28;20689;-70
2020/12/26 06:59:15;;;;;;;5.27;4.17;;;2.10;99.90;;;;;;5077239;28;20203;-70
2020/12/26 07:01:43;;;;;;;7.33;4.43;;;2.10;99.90;;;;;;5078875;28;20205;-71
2020/12/26 07:04:15;;;;;;;8.33;5.70;;;2.10;99.90;;;;;;5076333;28;20215;-71
2020/12/26 07:06:43;;;;;;;9.03;4.83;;;2.00;99.90;;;;;;5075647;28;20301;-71
2020/12/26 07:09:10;;;;;;;6.10;4.67;;;2.10;99.90;;;;;;5080906;28;20233;-70
2020/12/26 07:11:45;;;;;;;5.90;4.37;;;2.10;99.90;;;;;;5083193;28;20307;-72
2020/12/26 07:14:30;;;;;;;5.30;4.63;;;2.10;99.90;;;;;;5079101;28;20273;-70
2020/12/26 07:16:57;;;;;;;5.67;4.20;;;2.10;99.90;;;;;;5080298;28;20201;-70
2020/12/26 07:19:32;;;;;;;6.97;4.87;;;2.10;99.90;;;;;;5077197;28;20237;-71
2020/12/26 07:22:01;;;;;;;6.10;4.73;;;2.10;99.90;;;;;;5080183;28;20658;-70
2020/12/26 07:24:32;;;;;;;5.50;4.77;;;2.20;99.90;;;;;;5073953;28;20205;-71
2020/12/26 07:27:14;;;;;;;5.90;4.80;;;2.20;99.90;;;;;;5077545;28;20216;-70
2020/12/26 07:30:02;;;;;;;6.97;5.13;;;2.20;99.90;;;;;;5079236;28;20201;-70
2020/12/26 07:32:49;;;;;;;6.13;4.77;;;2.20;99.90;;;;;;5080784;28;20240;-72
2020/12/26 07:35:36;;;;;;;6.17;4.83;;;2.20;99.90;;;;;;5077499;28;20204;-69
2020/12/26 07:38:07;;;;;;;8.53;5.70;;;2.20;99.90;;;;;;5074009;28;20233;-70
2020/12/26 07:40:35;;;;;;;5.47;4.40;;;2.30;99.90;;;;;;5080682;28;20299;-71
2020/12/26 07:43:04;;;;;;;7.00;5.00;;;2.20;99.90;;;;;;5081013;28;20296;-69
2020/12/26 07:45:32;;;;;;;6.17;4.53;;;2.20;99.90;;;;;;5076412;28;20287;-72
2020/12/26 07:48:01;;;;;;;9.13;5.10;;;2.20;99.90;;;;;;5076415;28;20262;-70
2020/12/26 07:50:29;;;;;;;8.20;4.43;;;2.30;99.90;;;;;;5084005;28;20213;-73
2020/12/26 07:52:57;;;;;;;6.20;4.17;;;2.30;99.90;;;;;;5076392;28;20229;-70
2020/12/26 07:55:26;;;;;;;5.53;4.00;;;2.30;99.90;;;;;;5080313;28;20308;-69
2020/12/26 07:58:06;;;;;;;5.73;4.47;;;2.30;99.90;;;;;;5078944;28;20205;-70
2020/12/26 08:00:34;;;;;;;6.10;4.40;;;2.40;99.90;;;;;;5078367;28;20211;-71
2020/12/26 08:03:02;;;;;;;7.03;3.97;;;2.50;99.90;;;;;;5076971;28;20201;-70
2020/12/26 08:05:31;;;;;;;5.47;3.83;;;2.60;99.90;;;;;;5077677;28;20295;-71
2020/12/26 08:07:58;;;;;;;4.70;3.90;;;2.70;99.90;;;;;;5080984;28;20559;-72
2020/12/26 08:10:25;;;;;;;5.17;3.77;;;2.80;99.90;;;;;;5080686;28;20205;-73
2020/12/26 08:12:56;;;;;;;6.17;3.57;;;2.90;99.90;;;;;;5090124;28;20224;-72
2020/12/26 08:15:25;;;;;;;4.97;3.40;;;3.10;99.90;;;;;;5076879;28;20274;-70
2020/12/26 08:17:54;;;;;;;3.80;3.13;;;3.40;99.90;;;;;;5078340;28;20287;-74
2020/12/26 08:20:22;;;;;;;4.83;3.40;;;3.50;99.90;;;;;;5081259;28;20314;-74
2020/12/26 08:22:49;;;;;;;4.13;2.93;;;3.60;99.90;;;;;;5081631;28;20205;-73
2020/12/26 08:25:18;;;;;;;6.33;4.10;;;3.70;99.90;;;;;;5084953;28;20677;-73
2020/12/26 08:27:45;;;;;;;6.37;4.10;;;3.70;99.90;;;;;;5085965;28;20602;-74
2020/12/26 08:30:14;;;;;;;6.23;4.13;;;3.70;99.90;;;;;;5083621;28;20224;-73
2020/12/26 08:32:51;;;;;;;5.87;4.17;;;3.60;99.90;;;;;;5080974;28;20679;-72
2020/12/26 08:35:20;;;;;;;5.17;4.00;;;3.50;99.90;;;;;;5083046;28;20550;-74
2020/12/26 08:37:49;;;;;;;6.43;4.00;;;3.50;99.90;;;;;;5087218;28;20299;-72
2020/12/26 08:40:17;;;;;;;5.47;4.40;;;3.50;99.90;;;;;;5087878;28;20204;-72
2020/12/26 08:42:44;;;;;;;6.20;4.60;;;3.50;99.90;;;;;;5079861;28;20280;-71
2020/12/26 08:45:31;;;;;;;8.23;4.60;;;3.40;99.90;;;;;;5084863;28;20731;-72
2020/12/26 08:47:59;;;;;;;5.90;4.23;;;3.40;99.90;;;;;;5089413;28;20205;-73
2020/12/26 08:50:27;;;;;;;7.40;4.10;;;3.40;99.90;;;;;;5087620;28;20205;-73
2020/12/26 08:53:05;;;;;;;6.87;4.37;;;3.40;99.90;;;;;;5093863;28;20649;-72
2020/12/26 08:55:45;;;;;;;5.73;4.67;;;3.30;99.90;;;;;;5084451;28;20657;-73
2020/12/26 08:58:21;;;;;;;5.30;4.30;;;3.20;99.90;;;;;;5081271;28;20204;-72
2020/12/26 09:00:48;;;;;;;4.90;3.67;;;3.20;99.90;;;;;;5080008;28;20284;-73
2020/12/26 09:03:20;;;;;;;8.87;4.73;;;3.20;99.90;;;;;;5086525;28;20673;-71
2020/12/26 09:05:46;;;;;;;5.57;4.50;;;3.20;99.90;;;;;;5079567;28;20312;-73
2020/12/26 09:08:13;;;;;;;7.00;4.63;;;3.20;99.90;;;;;;5083231;28;20216;-68
2020/12/26 09:10:40;;;;;;;6.00;4.53;;;3.10;99.90;;;;;;5080897;28;20674;-70
2020/12/26 09:13:09;;;;;;;6.83;5.13;;;3.10;99.90;;;;;;5084412;28;20740;-70
2020/12/26 09:15:55;;;;;;;8.93;4.40;;;3.00;99.90;;;;;;5081014;28;20337;-73
2020/12/26 09:18:23;;;;;;;6.67;4.70;;;3.00;99.90;;;;;;5085117;28;20710;-73
2020/12/26 09:20:52;;;;;;;6.03;4.27;;;2.90;99.90;;;;;;5082425;28;20209;-74
2020/12/26 09:23:19;;;;;;;5.97;4.40;;;2.90;99.90;;;;;;5093468;28;20211;-73
2020/12/26 09:25:47;;;;;;;6.00;4.57;;;2.90;99.90;;;;;;5079223;28;20201;-69
2020/12/26 09:28:13;;;;;;;6.27;4.60;;;2.90;99.90;;;;;;5085842;28;20215;-73
2020/12/26 09:30:40;;;;;;;5.67;4.40;;;2.90;99.90;;;;;;5079225;28;20275;-73
2020/12/26 09:33:06;;;;;;;6.60;4.87;;;2.90;99.90;;;;;;5084942;28;20284;-72
2020/12/26 09:35:34;;;;;;;5.10;3.80;;;2.90;99.90;;;;;;5084303;28;20202;-72
2020/12/26 09:38:01;;;;;;;6.33;4.27;;;2.90;99.90;;;;;;5078237;28;20197;-72
2020/12/26 09:40:29;;;;;;;5.97;4.50;;;2.90;99.90;;;;;;5084983;28;20201;-74
2020/12/26 09:42:56;;;;;;;5.10;3.80;;;2.90;99.90;;;;;;5085297;28;20208;-72
2020/12/26 09:45:23;;;;;;;7.40;4.40;;;2.90;99.90;;;;;;5081600;28;20288;-72
2020/12/26 09:47:49;;;;;;;6.10;4.27;;;2.90;99.90;;;;;;5082564;28;20304;-72
2020/12/26 09:50:16;;;;;;;5.60;4.50;;;2.90;99.90;;;;;;5084436;28;20201;-74
2020/12/26 09:52:43;;;;;;;5.80;4.53;;;3.00;99.90;;;;;;5084353;28;20271;-72
2020/12/26 09:55:11;;;;;;;6.40;4.17;;;2.90;99.90;;;;;;5082491;28;20208;-73
2020/12/26 09:57:38;;;;;;;5.87;4.80;;;3.00;99.90;;;;;;5078495;28;20237;-73
2020/12/26 10:00:07;;;;;;;5.33;3.97;;;2.90;99.90;;;;;;5076897;28;20228;-72
2020/12/26 10:02:33;;;;;;;5.07;4.57;;;3.00;99.90;;;;;;5081660;28;20291;-74
2020/12/26 10:05:04;;;;;;;6.90;5.03;;;3.10;99.90;;;;;;5084215;28;20685;-70
2020/12/26 10:07:31;;;;;;;9.17;5.53;;;3.20;99.90;;;;;;5085001;28;20682;-72
2020/12/26 10:09:57;;;;;;;7.47;5.50;;;3.20;99.90;;;;;;5081996;28;20571;-73
2020/12/26 10:12:23;;;;;;;8.87;5.13;;;3.20;99.90;;;;;;5079951;28;20233;-75
2020/12/26 10:14:50;;;;;;;7.60;6.10;;;3.20;99.90;;;;;;5079786;28;20293;-74
2020/12/26 10:17:17;;;;;;;10.03;6.47;;;3.30;99.90;;;;;;5077754;28;20679;-75
2020/12/26 10:19:44;;;;;;;8.97;5.83;;;3.20;99.90;;;;;;5079508;28;20245;-72
2020/12/26 10:22:10;;;;;;;8.67;6.30;;;3.20;99.90;;;;;;5081552;28;20280;-74
2020/12/26 10:24:36;;;;;;;9.23;5.77;;;3.20;99.90;;;;;;5081977;28;20649;-73
2020/12/26 10:27:03;;;;;;;7.13;5.60;;;3.10;99.90;;;;;;5075104;28;20233;-73
2020/12/26 10:29:29;;;;;;;10.00;5.63;;;3.10;99.90;;;;;;5079130;28;20279;-73
2020/12/26 10:31:56;;;;;;;8.47;5.83;;;3.00;99.90;;;;;;5077349;28;20283;-73
2020/12/26 10:34:23;;;;;;;7.83;6.20;;;3.10;99.90;;;;;;5075273;28;20685;-73
2020/12/26 10:36:49;;;;;;;8.73;5.97;;;3.00;99.90;;;;;;5077435;28;20232;-73
2020/12/26 10:39:16;;;;;;;7.97;5.87;;;3.00;99.90;;;;;;5081505;28;20213;-73
2020/12/26 10:41:45;;;;;;;6.87;5.03;;;3.00;99.90;;;;;;5083215;28;20224;-73
2020/12/26 10:44:11;;;;;;;8.90;5.97;;;3.00;99.90;;;;;;5078193;28;20205;-72
2020/12/26 10:46:39;;;;;;;8.37;5.73;;;3.00;99.90;;;;;;5078946;28;20752;-72
2020/12/26 10:49:06;;;;;;;9.33;6.17;;;3.00;99.90;;;;;;5080692;28;20654;-74
2020/12/26 10:51:34;;;;;;;7.77;6.10;;;3.00;99.90;;;;;;5080524;28;20312;-74
2020/12/26 10:54:00;;;;;;;8.53;6.10;;;3.00;99.90;;;;;;5079414;28;20316;-73
2020/12/26 10:56:27;;;;;;;10.13;5.90;;;3.00;99.90;;;;;;5077363;27;20209;-73
2020/12/26 10:58:53;;;;;;;7.63;5.93;;;3.00;99.90;;;;;;5079279;28;20264;-73
2020/12/26 11:01:29;;;;;;;9.70;6.73;;;3.10;99.90;;;;;;5078777;28;20209;-73
2020/12/26 11:03:55;;;;;;;9.63;6.47;;;3.10;99.90;;;;;;5087892;28;20626;-73
2020/12/26 11:06:22;;;;;;;8.83;6.53;;;3.10;99.90;;;;;;5092973;28;20603;-73
2020/12/26 11:08:49;;;;;;;11.87;6.07;;;3.20;99.90;;;;;;5085631;28;20287;-74
2020/12/26 11:11:16;;;;;;;9.10;6.00;;;3.30;99.90;;;;;;5094282;28;20270;-73
2020/12/26 11:13:42;;;;;;;8.73;6.27;;;3.30;99.90;;;;;;5084444;28;20230;-73
2020/12/26 11:16:12;;;;;;;11.87;6.83;;;3.30;99.90;;;;;;5096637;28;20239;-72
2020/12/26 11:18:39;;;;;;;9.53;6.50;;;3.30;99.90;;;;;;5086117;28;20197;-72
2020/12/26 11:21:06;;;;;;;8.33;5.83;;;3.30;99.90;;;;;;5095484;28;20207;-73
2020/12/26 11:23:32;;;;;;;8.67;6.33;;;3.30;99.90;;;;;;5086462;28;20200;-73
2020/12/26 11:25:59;;;;;;;9.97;7.23;;;3.30;99.90;;;;;;5093443;28;20283;-72
2020/12/26 11:28:26;;;;;;;8.30;6.00;;;3.40;99.90;;;;;;5084435;28;20677;-70
2020/12/26 11:30:52;;;;;;;8.37;6.57;;;3.40;99.90;;;;;;5081495;28;20320;-71
2020/12/26 11:33:18;;;;;;;8.77;6.63;;;3.40;99.90;;;;;;5075834;28;20308;-76
2020/12/26 11:35:45;;;;;;;10.03;6.23;;;3.40;99.90;;;;;;5091424;28;20200;-74
2020/12/26 11:38:11;;;;;;;9.20;6.27;;;3.40;99.90;;;;;;5093494;28;20291;-72
2020/12/26 11:40:37;;;;;;;7.97;6.00;;;3.40;99.90;;;;;;5090662;28;20288;-72
2020/12/26 11:43:05;;;;;;;8.43;6.10;;;3.40;99.90;;;;;;5087477;28;20299;-74
2020/12/26 11:45:31;;;;;;;8.00;6.27;;;3.40;99.90;;;;;;5086159;28;20207;-73
2020/12/26 11:47:58;;;;;;;8.90;6.93;;;3.50;99.90;;;;;;5083075;28;20288;-74
2020/12/26 11:50:24;;;;;;;10.33;5.80;;;3.50;99.90;;;;;;5078760;28;20243;-75
2020/12/26 11:52:51;;;;;;;8.33;6.10;;;3.50;99.90;;;;;;5083931;28;20240;-74
2020/12/26 11:55:18;;;;;;;6.67;5.47;;;3.60;99.90;;;;;;5091801;28;20208;-74
2020/12/26 11:57:44;;;;;;;7.60;5.57;;;3.60;99.90;;;;;;5095910;28;20213;-74
2020/12/26 12:00:12;;;;;;;9.37;6.10;;;3.60;99.90;;;;;;5084391;28;20208;-74
2020/12/26 12:02:38;;;;;;;7.60;5.70;;;3.60;99.90;;;;;;5083270;28;20315;-73
2020/12/26 12:05:05;;;;;;;6.93;5.40;;;3.70;99.90;;;;;;5077008;28;20288;-71
2020/12/26 12:07:32;;;;;;;7.40;5.57;;;3.70;99.90;;;;;;5075957;28;20237;-71
2020/12/26 12:09:58;;;;;;;9.97;6.17;;;3.70;99.90;;;;;;5086157;28;20233;-70
2020/12/26 12:12:26;;;;;;;7.50;5.47;;;3.70;99.90;;;;;;5086623;28;20224;-70
2020/12/26 12:14:52;;;;;;;8.13;6.03;;;3.70;99.90;;;;;;5086928;28;20245;-72
2020/12/26 12:17:20;;;;;;;8.60;6.27;;;3.70;99.90;;;;;;5084754;28;20299;-71
2020/12/26 12:19:46;;;;;;;7.63;5.97;;;3.70;99.90;;;;;;5085293;28;20713;-71
2020/12/26 12:22:13;;;;;;;9.63;5.40;;;3.70;99.90;;;;;;5083698;28;20229;-72
2020/12/26 12:24:39;;;;;;;8.73;6.10;;;3.80;99.90;;;;;;5080818;28;20227;-70
2020/12/26 12:27:05;;;;;;;9.10;5.80;;;3.90;99.90;;;;;;5087964;28;20228;-70
2020/12/26 12:29:32;;;;;;;7.10;5.60;;;3.90;99.90;;;;;;5076729;28;20588;-69
2020/12/26 12:31:58;;;;;;;8.13;6.40;;;3.90;99.90;;;;;;5094091;28;20205;-69
2020/12/26 12:34:26;;;;;;;8.83;6.20;;;4.00;99.90;;;;;;5081753;28;20296;-72
2020/12/26 12:36:52;;;;;;;9.27;6.37;;;3.90;99.90;;;;;;5081176;28;20205;-71
2020/12/26 12:39:18;;;;;;;9.47;6.37;;;3.90;99.90;;;;;;5083526;28;20260;-71
2020/12/26 12:41:45;;;;;;;8.33;5.80;;;3.90;99.90;;;;;;5086223;28;20232;-70
2020/12/26 12:44:11;;;;;;;10.10;6.20;;;3.90;99.90;;;;;;5091063;28;20223;-72
2020/12/26 12:46:38;;;;;;;9.23;6.40;;;3.90;99.90;;;;;;5084085;28;20251;-71
2020/12/26 12:49:06;;;;;;;7.63;5.97;;;3.90;99.90;;;;;;5076819;28;20683;-72
2020/12/26 12:51:33;;;;;;;8.13;6.40;;;4.10;99.90;;;;;;5080658;28;20205;-72
2020/12/26 12:53:59;;;;;;;6.63;5.47;;;4.20;99.90;;;;;;5076094;28;20260;-72
2020/12/26 12:56:30;;;;;;;9.33;5.97;;;4.30;99.90;;;;;;5078055;28;20292;-73
2020/12/26 12:58:56;;;;;;;6.27;5.63;;;4.30;99.90;;;;;;5078713;28;20207;-73
2020/12/26 13:01:23;;;;;;;8.27;6.17;;;4.40;99.90;;;;;;5075561;28;20294;-72
2020/12/26 13:03:49;;;;;;;8.83;6.37;;;4.50;99.90;;;;;;5073536;28;20208;-73